Palm Cove, Queensland

11:24 AM AEST on September 20, 2014 (GMT +1000)
Palm Cove / Cairns | Change Station
CLOSE
Current Station
Personal Weather Station
Location: Palm Cove, QLD
Elevation: 30 ft
Nearby Weather Stations

Elev 30 ft 16.75 °S, 145.67 °E | Updated 37 days ago

Partly Cloudy
Partly Cloudy
83 °F
Feels Like 82 °F
N
9
Wind Variable Wind from SE
Gusts mph

Today
High -- | Low -- °F
--% Chance of Precip.
Yesterday
High -- | Low -- °F
Precip. -- in
6:09 AM 6:13 PM
Waning Crescent, 15% visible
Pressure 30.04 in
Visibility 6.2 miles
Clouds Few 3000 ft
Scattered Clouds 30000 ft
Heat Index 82 °F
Dew Point 59 °F
Humidity 44%
Rainfall 0.00 in
Snow Depth Not available.
UV 8 out of 12
Pollen Not available.
Air Quality Not available.
Flu Activity Not available.
METAR YBCS 200100Z 13009KT 9999 FEW030 SCT300 28/14 Q1017 NOSIG

More Conditions Fewer Conditions

Pressure 30.04 in
Visibility 6.2 miles
Clouds Few 3000 ft
Scattered Clouds 30000 ft
Heat Index 82 °F
Dew Point 59 °F
Humidity 44%
Rainfall 0.00 in
Snow Depth Not available.
UV 8 out of 12
Pollen Not available.
Air Quality Not available.
Flu Activity Not available.
METAR YBCS 200100Z 13009KT 9999 FEW030 SCT300 28/14 Q1017 NOSIG

More Conditions Fewer Conditions

10-Day Weather Forecast

Almanac

Astronomy

Sep. 20, 2014 Rise Set
Actual Time 6:09 AM AEST 6:13 PM AEST
Civil Twilight 5:47 AM AEST 6:34 PM AEST
Nautical Twilight 5:22 AM AEST 6:59 PM AEST
Astronomical Twilight 4:57 AM AEST 7:24 PM AEST
Moon 3:12 AM AEST 3:01 PM AEST
Length of Visible Light 12h 47m
Length of Day
12h 03m
Tomorrow will be 0m 57s longer.
Waning Crescent, 15% of the Moon is Illuminated
Sep 19
Waning Crescent
Sep 24
New
Oct 1
First Quarter
Oct 8
Full
Oct 15
Last Quarter

Yesterday's Extremes

Country Highs Country Lows

Community

WunderPhotos

Upload Photos

1,754,757 photos uploaded!

WunderBlogs® & News

Nearby

Snow Depth

Not available.

Earthquake Activity

City Distance Mag. Time & Date
No recent earthquake activity has been reported nearby.
Minimum magnitude displayed is 2.5.

Coastal Water Temperatures

Place Temperature
No Stations Reporting

Nearby Weather Stations